createdAt,value
2022-08-17T00:10:03.761Z,7.00
2022-08-17T00:31:49.708Z,7.30
2022-08-17T00:53:39.540Z,7.90
2022-08-17T01:15:25.819Z,9.40
2022-08-17T01:37:12.279Z,9.00
2022-08-17T01:58:58.721Z,8.80
2022-08-17T02:20:44.913Z,7.80
2022-08-17T02:42:34.753Z,8.70
2022-08-17T03:04:20.617Z,9.80
2022-08-17T03:26:12.288Z,8.20
2022-08-17T03:48:18.909Z,9.70
2022-08-17T04:10:05.182Z,8.80
2022-08-17T04:31:51.267Z,8.80
2022-08-17T04:53:37.510Z,9.40
2022-08-17T05:15:23.465Z,8.40
2022-08-17T05:37:09.253Z,8.00
2022-08-17T05:59:06.063Z,8.10
2022-08-17T06:20:59.939Z,8.60
2022-08-17T06:43:02.548Z,8.00
2022-08-17T07:04:52.732Z,7.40
2022-08-17T07:26:39.641Z,7.00
2022-08-17T07:48:28.032Z,6.50
2022-08-17T08:10:17.077Z,5.40
2022-08-17T08:32:09.148Z,4.20
2022-08-17T08:54:03.584Z,3.80
2022-08-17T09:15:56.075Z,4.00
2022-08-17T09:37:52.566Z,4.10
2022-08-17T09:59:56.673Z,4.50
2022-08-17T10:22:14.494Z,4.10
2022-08-17T10:44:40.358Z,3.90
2022-08-17T11:06:21.593Z,4.20
2022-08-17T11:28:18.660Z,3.50
2022-08-17T11:50:55.401Z,3.40
2022-08-17T12:12:44.339Z,3.00
2022-08-17T12:34:36.298Z,2.80
2022-08-17T12:56:22.333Z,3.20
2022-08-17T13:18:30.464Z,3.40
2022-08-17T13:40:37.721Z,3.90
2022-08-17T14:02:27.653Z,4.10
2022-08-17T14:24:22.293Z,3.90
2022-08-17T14:46:08.415Z,3.60
2022-08-17T15:07:56.022Z,3.80
2022-08-17T15:29:41.774Z,3.70
2022-08-17T15:51:29.842Z,4.20
2022-08-17T16:13:17.371Z,4.10
2022-08-17T16:35:06.500Z,4.00
2022-08-17T16:56:52.238Z,4.30
2022-08-17T17:18:43.820Z,4.00
2022-08-17T17:40:41.423Z,4.80
2022-08-17T18:02:52.100Z,4.80
2022-08-17T18:24:42.810Z,4.50
2022-08-17T18:46:37.621Z,5.50
2022-08-17T19:08:36.263Z,6.10
2022-08-17T19:30:22.481Z,6.00
2022-08-17T19:52:27.144Z,6.40
2022-08-17T20:14:18.595Z,6.70
2022-08-17T20:36:15.646Z,6.60
2022-08-17T21:20:11.092Z,7.20
2022-08-17T21:41:59.376Z,7.60
2022-08-17T22:03:46.274Z,7.80
2022-08-17T22:25:33.217Z,8.20
2022-08-17T22:47:43.019Z,8.30
2022-08-17T23:09:30.143Z,9.10
2022-08-17T23:31:20.153Z,8.20
2022-08-17T23:53:11.665Z,9.10
